Time;durP1;ratioP1;P1;durP2;ratioP2;P2;SDS_P1;SDS_P2;PMS_P1;PMS_P2;Temp;Humidity;BMP_temperature;BMP_pressure;BME280_temperature;BME280_humidity;BME280_pressure;Samples;Min_cycle;Max_cycle;Signal;HPM_P1;HPM_P2
2023/11/24 00:00:25;;;;;;;3.40;0.50;;;;;;;4.58;88.73;98845.93;109144;1263;67112;-57
2023/11/24 00:03:11;;;;;;;2.30;0.40;;;;;;;4.50;88.73;98843.69;109167;1262;72439;-57
2023/11/24 00:05:57;;;;;;;1.90;0.60;;;;;;;4.44;89.07;98843.13;109168;1263;58401;-57
2023/11/24 00:08:43;;;;;;;1.50;0.30;;;;;;;4.39;89.26;98833.84;109166;1262;59962;-57
2023/11/24 00:11:29;;;;;;;2.60;0.30;;;;;;;4.32;89.26;98829.88;109153;1263;71292;-57
2023/11/24 00:14:15;;;;;;;1.10;0.40;;;;;;;4.23;89.50;98826.83;109170;1263;67331;-56
2023/11/24 00:17:01;;;;;;;0.70;0.30;;;;;;;4.16;90.04;98830.39;109157;1263;72246;-56
2023/11/24 00:19:48;;;;;;;1.20;0.30;;;;;;;4.10;89.99;98840.73;109177;1263;57297;-57
2023/11/24 00:22:34;;;;;;;2.30;0.20;;;;;;;4.02;89.94;98847.20;109165;1262;58220;-58
2023/11/24 00:25:20;;;;;;;1.20;0.20;;;;;;;3.94;90.69;98858.75;109156;1262;71435;-57
2023/11/24 00:28:05;;;;;;;4.10;0.30;;;;;;;3.86;91.16;98858.38;109161;1266;67164;-57
2023/11/24 00:30:54;;;;;;;0.70;0.20;;;;;;;3.80;91.17;98856.45;109162;1263;71286;-57
2023/11/24 00:33:40;;;;;;;1.90;0.30;;;;;;;3.77;92.13;98858.19;109148;1263;57563;-58
2023/11/24 00:36:27;;;;;;;0.40;0.20;;;;;;;3.81;92.01;98858.98;109163;1263;58785;-57
2023/11/24 00:39:13;;;;;;;2.60;0.20;;;;;;;3.82;92.07;98861.53;109192;1263;71596;-57
2023/11/24 00:42:00;;;;;;;0.80;0.20;;;;;;;3.82;91.15;98864.76;109167;1263;67059;-56
2023/11/24 00:44:46;;;;;;;3.20;0.40;;;;;;;3.81;92.38;98862.21;109167;1263;72410;-57
2023/11/24 00:47:32;;;;;;;0.80;0.40;;;;;;;3.84;92.31;98863.02;109183;1263;57535;-57
2023/11/24 00:50:18;;;;;;;3.10;0.50;;;;;;;3.86;92.81;98863.00;109145;1262;59662;-56
2023/11/24 00:53:05;;;;;;;3.90;0.60;;;;;;;3.87;92.18;98861.95;109156;1262;71471;-58
2023/11/24 00:55:51;;;;;;;3.80;0.20;;;;;;;3.89;92.94;98862.59;109195;1263;67243;-58
2023/11/24 00:58:37;;;;;;;1.70;0.70;;;;;;;3.91;91.95;98860.86;109126;1263;70412;-57
2023/11/24 01:01:23;;;;;;;2.60;0.50;;;;;;;3.93;92.41;98858.27;109162;1263;58463;-58
2023/11/24 01:04:09;;;;;;;3.10;0.40;;;;;;;3.92;92.71;98849.41;109161;1263;58917;-57
2023/11/24 01:06:56;;;;;;;3.70;0.60;;;;;;;3.95;93.66;98853.13;109097;1263;71603;-57
2023/11/24 01:09:42;;;;;;;3.80;0.80;;;;;;;3.99;93.53;98844.70;108380;1263;67269;-58
2023/11/24 01:12:28;;;;;;;5.00;1.30;;;;;;;3.96;92.66;98848.67;107722;1267;71344;-58
2023/11/24 01:15:14;;;;;;;7.40;1.10;;;;;;;3.97;92.77;98846.42;107700;1263;59634;-59
2023/11/24 01:18:01;;;;;;;;;;;;;;;4.00;92.79;98852.86;107750;1263;59512;-59
2023/11/24 01:20:47;;;;;;;4.00;1.00;;;;;;;3.99;93.05;98860.20;107693;1263;71709;-59
2023/11/24 01:23:35;;;;;;;8.50;1.30;;;;;;;3.98;92.52;98859.20;107698;1263;67092;-58
2023/11/24 01:26:21;;;;;;;7.00;1.10;;;;;;;3.92;92.14;98853.34;107754;1267;72805;-59
2023/11/24 01:29:07;;;;;;;4.50;1.60;;;;;;;3.85;91.88;98848.84;107726;1263;60471;-58
2023/11/24 01:31:53;;;;;;;;;;;;;;;3.84;93.41;98851.08;107776;1263;60301;-59
2023/11/24 01:34:40;;;;;;;3.20;0.90;;;;;;;3.85;93.28;98848.52;107755;1263;71292;-59
2023/11/24 01:37:27;;;;;;;9.40;1.10;;;;;;;3.87;93.03;98845.40;107780;1262;72201;-60
2023/11/24 01:40:13;;;;;;;9.90;2.00;;;;;;;3.91;92.81;98845.51;107768;1263;71101;-59
2023/11/24 01:43:00;;;;;;;7.30;1.70;;;;;;;3.92;92.73;98841.41;107662;1263;60503;-59
2023/11/24 01:45:46;;;;;;;10.80;1.50;;;;;;;3.90;92.36;98839.23;109208;1263;60727;-60
2023/11/24 01:48:32;;;;;;;4.30;1.20;;;;;;;3.84;92.46;98840.18;109198;1263;73621;-60
2023/11/24 01:51:19;;;;;;;5.40;1.40;;;;;;;3.82;92.28;98830.84;109121;1263;68440;-60
2023/11/24 01:54:06;;;;;;;9.00;1.30;;;;;;;3.81;92.11;98839.38;108903;1262;71146;-60
2023/11/24 01:56:57;;;;;;;34.20;7.80;;;;;;;3.85;91.82;98837.10;107698;1263;60430;-59
2023/11/24 01:59:43;;;;;;;10.90;2.30;;;;;;;3.90;91.43;98832.73;108654;1263;60564;-58
2023/11/24 02:02:30;;;;;;;10.50;1.40;;;;;;;3.93;90.62;98829.96;107705;1263;75045;-58
2023/11/24 02:05:18;;;;;;;8.10;1.50;;;;;;;3.97;89.85;98825.30;107724;1263;71371;-59
2023/11/24 02:08:05;;;;;;;11.80;1.70;;;;;;;3.98;90.20;98823.91;107715;1266;72651;-58
2023/11/24 02:10:51;;;;;;;7.00;1.10;;;;;;;3.90;90.01;98821.65;108329;1263;60481;-59
2023/11/24 02:13:37;;;;;;;;;;;;;;;3.88;89.38;98817.79;107773;1263;60381;-58
2023/11/24 02:16:23;;;;;;;4.80;1.10;;;;;;;3.85;89.35;98816.47;107785;1263;72379;-59
2023/11/24 02:19:10;;;;;;;;;;;;;;;3.86;89.30;98816.45;107766;1266;66158;-60
2023/11/24 02:21:56;;;;;;;11.40;1.40;;;;;;;3.81;89.31;98817.21;107752;1266;71526;-57
2023/11/24 02:24:42;;;;;;;9.30;1.60;;;;;;;3.77;89.53;98818.83;107726;1262;60491;-58
2023/11/24 02:27:28;;;;;;;9.40;1.40;;;;;;;3.74;89.73;98821.60;107715;1263;61604;-59
2023/11/24 02:30:15;;;;;;;9.20;1.90;;;;;;;3.66;89.67;98828.23;107720;1263;72360;-60
2023/11/24 02:33:01;;;;;;;13.70;2.80;;;;;;;3.61;89.79;98831.39;107709;1262;69264;-59
2023/11/24 02:35:48;;;;;;;7.40;2.50;;;;;;;3.59;89.96;98830.58;107751;1263;70083;-59
2023/11/24 02:38:34;;;;;;;;;;;;;;;3.57;89.87;98827.88;107767;1263;60292;-59
2023/11/24 02:41:21;;;;;;;11.60;1.40;;;;;;;3.56;89.44;98836.77;107763;1263;60342;-58
2023/11/24 02:44:07;;;;;;;9.20;1.60;;;;;;;3.52;89.44;98841.08;107728;1263;73110;-60
2023/11/24 02:46:53;;;;;;;10.60;1.20;;;;;;;3.48;89.26;98837.23;107744;1263;67081;-59
2023/11/24 02:49:40;;;;;;;4.00;1.40;;;;;;;3.45;89.18;98836.94;107759;1266;72643;-58
2023/11/24 02:52:26;;;;;;;24.40;9.30;;;;;;;3.42;88.25;98838.01;107745;1266;60350;-58
2023/11/24 02:55:14;;;;;;;11.70;1.60;;;;;;;3.42;87.74;98835.96;107767;1263;60448;-59
2023/11/24 02:58:01;;;;;;;10.90;1.60;;;;;;;3.41;87.87;98838.88;107753;1263;74111;-59
2023/11/24 03:00:47;;;;;;;6.20;1.40;;;;;;;3.38;86.07;98846.92;107719;1263;67081;-59
2023/11/24 03:03:33;;;;;;;9.20;1.40;;;;;;;3.35;86.41;98843.73;107760;1263;71173;-60
2023/11/24 03:06:19;;;;;;;;;;;;;;;3.31;86.39;98841.73;107732;1263;60443;-59
2023/11/24 03:09:06;;;;;;;3.10;0.90;;;;;;;3.27;85.91;98842.14;107735;1263;60493;-58
2023/11/24 03:11:53;;;;;;;10.60;1.10;;;;;;;3.27;86.19;98834.84;107728;1262;71941;-59
2023/11/24 03:14:42;;;;;;;36.00;8.30;;;;;;;3.22;86.10;98835.58;109170;1263;67545;-60
2023/11/24 03:17:28;;;;;;;11.30;1.60;;;;;;;3.21;85.14;98832.19;109202;1263;71163;-61
2023/11/24 03:20:15;;;;;;;6.30;1.80;;;;;;;3.20;84.79;98833.56;109194;1263;58294;-58
2023/11/24 03:23:01;;;;;;;145.70;77.40;;;;;;;3.17;84.77;98840.59;109211;1263;58149;-59
2023/11/24 03:25:47;;;;;;;7.80;2.60;;;;;;;3.14;84.27;98846.25;109205;1263;72241;-60
2023/11/24 03:28:34;;;;;;;4.60;1.10;;;;;;;3.18;84.58;98833.77;109172;1263;67065;-59
2023/11/24 03:31:20;;;;;;;5.40;1.30;;;;;;;3.17;83.92;98829.02;109175;1263;71239;-60
2023/11/24 03:34:06;;;;;;;4.40;0.90;;;;;;;3.11;85.12;98828.62;109047;1262;58580;-58
2023/11/24 03:36:52;;;;;;;10.40;1.60;;;;;;;3.04;84.51;98828.39;107780;1263;60256;-58
2023/11/24 03:39:39;;;;;;;9.10;1.60;;;;;;;3.01;85.13;98824.34;107760;1263;72366;-59
2023/11/24 03:42:25;;;;;;;6.80;1.80;;;;;;;3.01;84.88;98817.88;107752;1263;69942;-59
2023/11/24 03:45:12;;;;;;;11.70;2.90;;;;;;;3.08;84.70;98819.14;107745;1263;71828;-58
2023/11/24 03:47:58;;;;;;;12.60;2.10;;;;;;;3.08;84.93;98828.33;107762;1268;60462;-58
2023/11/24 03:50:44;;;;;;;9.50;3.20;;;;;;;3.08;85.48;98826.30;107797;1263;60756;-61
2023/11/24 03:53:31;;;;;;;5.80;1.90;;;;;;;3.10;85.20;98818.60;107664;1264;72258;-59
2023/11/24 03:56:17;;;;;;;11.00;1.60;;;;;;;3.10;84.96;98820.80;107765;1263;67877;-59
2023/11/24 03:59:04;;;;;;;15.20;2.00;;;;;;;3.12;85.19;98816.70;107722;1263;71060;-59
2023/11/24 04:01:50;;;;;;;8.20;1.00;;;;;;;3.12;85.53;98812.95;107788;1266;60416;-58
2023/11/24 04:04:36;;;;;;;11.50;2.00;;;;;;;3.09;85.63;98809.60;107760;1266;60847;-59
2023/11/24 04:07:23;;;;;;;8.80;1.60;;;;;;;3.10;85.13;98805.67;107727;1263;75052;-59
2023/11/24 04:10:10;;;;;;;46.90;36.40;;;;;;;3.07;85.44;98809.95;107795;1265;67826;-59
2023/11/24 04:12:56;;;;;;;14.20;2.30;;;;;;;3.13;85.21;98806.78;109182;1262;70989;-59
2023/11/24 04:15:42;;;;;;;14.90;2.20;;;;;;;3.14;85.03;98813.05;109163;1263;58236;-60
2023/11/24 04:18:28;;;;;;;8.80;2.30;;;;;;;3.14;84.95;98814.42;109183;1264;58808;-60
2023/11/24 04:21:14;;;;;;;;;;;;;;;3.17;84.83;98813.02;109244;1263;72904;-59
2023/11/24 04:24:00;;;;;;;10.60;1.80;;;;;;;3.17;85.02;98810.13;109236;1263;68816;-59
2023/11/24 04:26:46;;;;;;;6.50;2.10;;;;;;;3.15;85.27;98809.12;109182;1262;73012;-59
2023/11/24 04:29:32;;;;;;;6.10;1.60;;;;;;;3.18;85.24;98806.52;109137;1262;58968;-60
2023/11/24 04:32:20;;;;;;;5.80;1.30;;;;;;;3.21;84.25;98804.78;109192;1263;58682;-60
2023/11/24 04:35:07;;;;;;;15.90;2.00;;;;;;;3.25;84.23;98807.27;109219;1263;72236;-60
2023/11/24 04:37:53;;;;;;;13.00;1.70;;;;;;;3.25;83.91;98806.77;109217;1263;67147;-60
2023/11/24 04:40:39;;;;;;;11.60;2.10;;;;;;;3.21;84.69;98812.61;109179;1263;73163;-58
2023/11/24 04:43:26;;;;;;;10.30;1.70;;;;;;;3.20;83.71;98813.83;109170;1262;58040;-57
2023/11/24 04:46:13;;;;;;;8.30;1.70;;;;;;;3.29;83.76;98811.30;109214;1263;58883;-57
2023/11/24 04:49:03;;;;;;;8.20;1.50;;;;;;;3.33;84.50;98810.55;109199;1263;74070;-57
2023/11/24 04:51:49;;;;;;;5.30;1.20;;;;;;;3.38;83.07;98810.81;109174;1262;67350;-57
2023/11/24 04:54:35;;;;;;;5.60;1.20;;;;;;;3.45;83.93;98816.15;109207;1263;71055;-58
2023/11/24 04:57:21;;;;;;;15.00;2.10;;;;;;;3.50;83.76;98813.52;109195;1263;58868;-57
2023/11/24 05:00:08;;;;;;;11.80;2.40;;;;;;;3.51;83.66;98825.25;109195;1264;58707;-57
2023/11/24 05:02:54;;;;;;;10.80;2.50;;;;;;;3.53;83.64;98821.83;109184;1263;72345;-57
2023/11/24 05:05:40;;;;;;;525.60;376.80;;;;;;;3.54;83.33;98814.14;109218;1263;67494;-56
2023/11/24 05:08:26;;;;;;;13.40;2.20;;;;;;;3.53;83.71;98813.64;109158;1264;71022;-57
2023/11/24 05:11:12;;;;;;;8.50;1.70;;;;;;;3.53;82.56;98809.73;109177;1263;58427;-57
2023/11/24 05:13:58;;;;;;;8.10;1.90;;;;;;;3.56;82.99;98796.39;109205;1264;58728;-57
2023/11/24 05:16:44;;;;;;;9.90;2.20;;;;;;;3.54;82.45;98800.16;109215;1264;72291;-57
2023/11/24 05:19:30;;;;;;;9.00;1.80;;;;;;;3.51;83.41;98800.05;109210;1264;67071;-57
2023/11/24 05:22:16;;;;;;;5.80;1.30;;;;;;;3.44;83.35;98797.94;109195;1263;72291;-58
2023/11/24 05:25:03;;;;;;;7.00;1.60;;;;;;;3.40;83.10;98797.84;109218;1263;58330;-57
2023/11/24 05:27:49;;;;;;;10.70;1.80;;;;;;;3.42;82.73;98800.88;109203;1263;58604;-57
2023/11/24 05:30:35;;;;;;;10.10;1.90;;;;;;;3.45;83.35;98803.05;109226;1264;73236;-57
2023/11/24 05:33:21;;;;;;;15.20;2.50;;;;;;;3.44;83.26;98805.10;109195;1263;68438;-57
2023/11/24 05:36:09;;;;;;;201.80;139.00;;;;;;;3.45;82.71;98803.55;109204;1264;71327;-56
2023/11/24 05:38:57;;;;;;;6.20;2.20;;;;;;;3.50;82.05;98799.56;109227;1262;58219;-57
2023/11/24 05:41:44;;;;;;;10.40;1.80;;;;;;;3.48;81.86;98800.61;109004;1266;184852;-58
2023/11/24 05:44:30;;;;;;;13.20;1.80;;;;;;;3.47;81.88;98783.76;109225;1264;73378;-57
2023/11/24 05:47:16;;;;;;;11.80;1.80;;;;;;;3.47;81.70;98781.20;109189;1264;67401;-58
2023/11/24 05:50:05;;;;;;;9.50;1.20;;;;;;;3.48;81.85;98783.23;109199;1264;70173;-57
2023/11/24 05:52:51;;;;;;;12.80;2.10;;;;;;;3.48;81.42;98783.58;109183;1264;58178;-57
2023/11/24 05:55:37;;;;;;;8.60;1.80;;;;;;;3.50;82.17;98789.34;108438;1262;59169;-59
2023/11/24 05:58:23;;;;;;;8.60;1.60;;;;;;;3.46;82.47;98788.55;107871;1264;72219;-59
2023/11/24 06:01:09;;;;;;;5.40;1.30;;;;;;;3.42;81.67;98793.73;107823;1266;66184;-58
2023/11/24 06:03:56;;;;;;;27.60;8.00;;;;;;;3.42;81.65;98795.77;107655;1263;71054;-59
2023/11/24 06:06:42;;;;;;;;;;;;;;;3.45;80.40;98794.52;107696;1264;60416;-58
2023/11/24 06:09:29;;;;;;;4.50;1.10;;;;;;;3.44;81.62;98796.59;107865;1263;60349;-57
2023/11/24 06:12:15;;;;;;;4.50;1.10;;;;;;;3.35;81.41;98788.23;108070;1263;72356;-58
2023/11/24 06:15:02;;;;;;;11.90;1.90;;;;;;;3.26;81.76;98792.61;107805;1264;67769;-59
2023/11/24 06:17:49;;;;;;;12.80;1.90;;;;;;;3.25;81.86;98798.08;107787;1267;71541;-59
2023/11/24 06:20:35;;;;;;;9.90;1.20;;;;;;;3.25;82.04;98805.73;107972;1264;59152;-58
2023/11/24 06:23:22;;;;;;;4.30;1.10;;;;;;;3.26;82.30;98825.48;107783;1262;60278;-58
2023/11/24 06:26:09;;;;;;;10.40;1.10;;;;;;;3.26;83.31;98831.77;107813;1263;72490;-57
2023/11/24 06:28:56;;;;;;;5.40;0.90;;;;;;;3.14;84.37;98827.54;107763;1264;67071;-58
2023/11/24 06:31:42;;;;;;;3.50;0.90;;;;;;;3.00;84.70;98840.02;107781;1264;71039;-57
2023/11/24 06:34:28;;;;;;;19.40;17.00;;;;;;;2.91;85.19;98845.93;107690;1266;60321;-59
2023/11/24 06:37:14;;;;;;;3.40;0.90;;;;;;;2.77;85.82;98843.73;107745;1264;60318;-58
2023/11/24 06:40:02;;;;;;;;;;;;;;;2.65;86.24;98839.12;107793;1264;74009;-58
2023/11/24 06:42:49;;;;;;;2.10;0.70;;;;;;;2.51;87.16;98831.15;107821;1263;70185;-59
2023/11/24 06:45:35;;;;;;;3.50;0.80;;;;;;;2.42;87.01;98836.03;107781;1264;70961;-59
2023/11/24 06:48:21;;;;;;;3.90;0.80;;;;;;;2.36;86.99;98842.73;107615;1262;60320;-59
2023/11/24 06:51:07;;;;;;;4.80;1.00;;;;;;;2.32;87.89;98831.55;107754;1264;60627;-58
2023/11/24 06:53:54;;;;;;;5.40;0.90;;;;;;;2.32;87.13;98838.69;107721;1264;73542;-59
2023/11/24 06:56:40;;;;;;;89.10;79.50;;;;;;;2.33;87.66;98839.36;107655;1266;67131;-59
2023/11/24 06:59:26;;;;;;;;;;;;;;;2.32;86.83;98837.83;107578;1264;71076;-60
2023/11/24 07:02:12;;;;;;;7.20;1.20;;;;;;;2.32;86.81;98839.70;107704;1264;61279;-57
2023/11/24 07:04:59;;;;;;;8.80;1.50;;;;;;;2.30;86.90;98838.71;107760;1264;60292;-56
2023/11/24 07:07:45;;;;;;;6.30;1.10;;;;;;;2.28;87.05;98838.39;107740;1264;72278;-59
2023/11/24 07:10:32;;;;;;;6.40;1.60;;;;;;;2.25;87.22;98841.99;107771;1264;67064;-58
2023/11/24 07:13:18;;;;;;;4.90;1.40;;;;;;;2.24;87.87;98841.49;107738;1264;73844;-59
2023/11/24 07:16:05;;;;;;;5.30;1.30;;;;;;;2.27;87.44;98843.52;107717;1263;60410;-55
2023/11/24 07:18:52;;;;;;;7.70;1.00;;;;;;;2.32;87.13;98849.91;107672;1263;63719;-59
2023/11/24 07:21:38;;;;;;;3.50;1.50;;;;;;;2.39;87.46;98850.69;109164;1262;72376;-60
2023/11/24 07:24:24;;;;;;;;;;;;;;;2.44;87.43;98844.69;109191;1263;66261;-60
2023/11/24 07:27:10;;;;;;;6.70;1.60;;;;;;;2.54;87.01;98835.04;109144;1264;71198;-59
2023/11/24 07:29:56;;;;;;;16.30;2.70;;;;;;;2.61;86.63;98835.27;109176;1263;58040;-59
2023/11/24 07:32:42;;;;;;;2.80;1.10;;;;;;;2.69;86.53;98839.23;109181;1263;59028;-60
2023/11/24 07:35:30;;;;;;;2.80;1.10;;;;;;;2.81;86.44;98835.52;102864;1264;10001656;-60
2023/11/24 07:38:16;;;;;;;9.30;1.40;;;;;;;2.98;85.74;98830.86;109171;1264;67891;-60
2023/11/24 07:41:04;;;;;;;5.70;1.50;;;;;;;3.19;85.48;98832.92;109155;1263;72216;-60
2023/11/24 07:43:50;;;;;;;4.20;1.10;;;;;;;3.34;84.68;98835.92;109151;1262;59006;-60
2023/11/24 07:46:36;;;;;;;61.20;33.30;;;;;;;3.43;84.47;98827.60;109182;1262;59857;-59
2023/11/24 07:49:22;;;;;;;4.30;1.10;;;;;;;3.47;84.24;98831.63;109148;1264;72333;-60
2023/11/24 07:52:09;;;;;;;6.80;1.10;;;;;;;3.48;84.66;98829.23;109187;1264;67276;-60
2023/11/24 07:54:55;;;;;;;2.70;0.90;;;;;;;3.40;83.57;98833.61;109157;1263;71398;-59
2023/11/24 07:57:41;;;;;;;6.80;1.00;;;;;;;3.45;83.84;98834.73;109133;1262;58506;-58
2023/11/24 08:00:27;;;;;;;7.70;1.30;;;;;;;3.51;83.95;98832.42;109175;1262;59681;-57
2023/11/24 08:03:13;;;;;;;4.40;1.00;;;;;;;3.51;83.24;98838.21;109176;1263;72650;-57
2023/11/24 08:06:06;;;;;;;7.20;1.70;;;;;;;3.52;83.53;98837.69;109151;1264;67552;-57
2023/11/24 08:08:52;;;;;;;5.00;0.90;;;;;;;3.62;84.37;98828.30;109170;1263;72638;-57
2023/11/24 08:11:38;;;;;;;;;;;;;;;3.71;83.73;98829.15;109150;1263;58114;-56
2023/11/24 08:14:24;;;;;;;6.10;1.00;;;;;;;3.72;81.98;98828.13;109199;1262;60216;-54
2023/11/24 08:17:10;;;;;;;4.20;1.20;;;;;;;3.74;82.49;98827.92;109171;1262;71336;-56
2023/11/24 08:19:56;;;;;;;3.40;0.70;;;;;;;3.86;82.96;98825.84;109161;1264;68305;-57
2023/11/24 08:22:42;;;;;;;4.90;1.70;;;;;;;4.15;83.08;98827.00;109164;1263;72763;-57
2023/11/24 08:25:28;;;;;;;5.60;1.20;;;;;;;4.32;79.77;98826.31;109192;1262;58180;-57
2023/11/24 08:28:14;;;;;;;6.90;0.90;;;;;;;4.41;81.36;98822.73;109172;1264;58802;-57
2023/11/24 08:31:01;;;;;;;7.00;1.30;;;;;;;4.55;78.99;98826.02;109190;1263;73363;-57
2023/11/24 08:33:48;;;;;;;7.50;1.20;;;;;;;4.77;80.91;98831.69;109160;1262;67282;-57
2023/11/24 08:36:35;;;;;;;3.20;1.10;;;;;;;4.90;80.53;98828.52;109169;1262;72846;-57
2023/11/24 08:39:21;;;;;;;5.10;1.10;;;;;;;5.40;80.47;98827.00;109179;1263;58143;-57
2023/11/24 08:42:07;;;;;;;10.00;2.20;;;;;;;5.82;77.85;98826.29;109188;1263;58436;-58
2023/11/24 08:44:53;;;;;;;4.30;1.40;;;;;;;6.05;78.18;98831.70;108991;1262;74410;-57
2023/11/24 08:47:41;;;;;;;6.70;1.20;;;;;;;6.17;75.40;98837.20;109193;1264;66980;-57
2023/11/24 08:50:28;;;;;;;6.20;1.00;;;;;;;6.51;75.53;98835.91;108909;1262;336204;-57
2023/11/24 08:53:14;;;;;;;6.90;1.40;;;;;;;6.69;73.66;98837.95;109188;1262;58635;-57
2023/11/24 08:56:04;;;;;;;10.00;6.20;;;;;;;7.31;76.73;98836.38;109185;1262;61530;-57
2023/11/24 08:58:50;;;;;;;3.70;1.30;;;;;;;7.43;73.59;98825.02;109155;1262;73008;-57
2023/11/24 09:01:36;;;;;;;4.00;1.20;;;;;;;7.96;74.34;98825.64;109174;1262;68308;-57
2023/11/24 09:04:22;;;;;;;4.80;1.30;;;;;;;8.65;77.04;98819.59;109156;1262;72957;-58
2023/11/24 09:07:08;;;;;;;7.70;1.70;;;;;;;8.38;67.19;98823.83;109192;1262;58483;-58
2023/11/24 09:09:54;;;;;;;50.00;20.50;;;;;;;7.85;69.38;98826.70;109185;1263;60462;-57
2023/11/24 09:12:40;;;;;;;5.50;1.60;;;;;;;7.23;68.51;98813.84;109187;1262;73574;-57
2023/11/24 09:15:26;;;;;;;8.50;2.00;;;;;;;7.25;70.84;98818.23;109178;1262;67449;-57
2023/11/24 09:18:12;;;;;;;4.70;1.40;;;;;;;6.93;68.43;98818.73;109182;1262;72235;-56
2023/11/24 09:20:58;;;;;;;7.80;1.90;;;;;;;6.85;71.03;98816.05;108994;1263;58148;-57
2023/11/24 09:23:44;;;;;;;281.70;186.80;;;;;;;6.32;70.22;98821.89;109189;1262;58954;-57
2023/11/24 09:26:30;;;;;;;5.90;1.60;;;;;;;6.26;69.10;98814.50;109177;1262;72379;-57
2023/11/24 09:29:16;;;;;;;5.30;1.30;;;;;;;6.07;69.89;98800.17;109178;1262;67013;-57
2023/11/24 09:32:02;;;;;;;4.10;1.30;;;;;;;5.90;71.71;98799.42;109190;1262;70758;-57
2023/11/24 09:34:49;;;;;;;6.40;2.20;;;;;;;5.89;70.27;98800.13;109092;1263;58051;-57
2023/11/24 09:37:35;;;;;;;25.40;12.30;;;;;;;6.46;70.54;98791.89;109217;1262;60461;-56
2023/11/24 09:40:22;;;;;;;5.20;1.60;;;;;;;6.77;69.47;98786.33;109179;1262;73458;-56
2023/11/24 09:43:09;;;;;;;8.40;3.10;;;;;;;6.83;67.74;98778.44;109181;1262;68959;-57
2023/11/24 09:45:56;;;;;;;5.80;1.20;;;;;;;6.54;65.92;98779.85;109177;1262;72695;-57
2023/11/24 09:48:45;;;;;;;8.00;1.80;;;;;;;6.37;70.00;98774.35;109151;1262;58478;-57
2023/11/24 09:51:32;;;;;;;4.30;2.60;;;;;;;6.21;69.50;98776.67;108934;1263;60039;-57
2023/11/24 09:54:19;;;;;;;7.20;1.20;;;;;;;6.09;71.16;98774.30;108956;1263;72427;-56
2023/11/24 09:57:05;;;;;;;10.20;2.20;;;;;;;6.22;70.74;98773.25;109192;1262;67754;-57
2023/11/24 09:59:51;;;;;;;4.70;1.70;;;;;;;6.19;70.56;98766.33;109156;1262;73398;-56
2023/11/24 10:02:39;;;;;;;6.50;1.80;;;;;;;6.15;69.97;98766.09;109168;1262;58363;-57
2023/11/24 10:05:26;;;;;;;10.30;4.00;;;;;;;6.16;69.95;98761.09;109180;1262;59172;-57
2023/11/24 10:08:12;;;;;;;4.60;1.20;;;;;;;6.26;69.59;98757.05;109182;1262;72486;-57
2023/11/24 10:11:27;;;;;;;3.90;1.30;;;;;;;6.00;68.80;98751.95;109166;1262;68704;-57
2023/11/24 10:14:15;;;;;;;;;;;;;;;5.75;69.03;98747.14;109158;1262;72571;-57
2023/11/24 10:17:01;;;;;;;10.30;1.60;;;;;;;5.62;68.40;98744.08;109173;1262;58145;-57
2023/11/24 10:19:47;;;;;;;3.70;1.20;;;;;;;5.76;69.38;98743.88;109178;1263;60019;-57
2023/11/24 10:22:33;;;;;;;4.90;1.60;;;;;;;6.32;70.07;98741.27;109172;1263;72491;-57
2023/11/24 10:25:20;;;;;;;6.70;1.60;;;;;;;7.00;71.00;98741.41;109192;1262;68121;-57
2023/11/24 10:28:08;;;;;;;5.20;1.40;;;;;;;7.83;67.37;98734.83;109182;1262;71261;-57
2023/11/24 10:30:56;;;;;;;5.30;1.50;;;;;;;8.20;65.64;98732.30;109139;1263;57951;-58
2023/11/24 10:33:43;;;;;;;5.40;2.20;;;;;;;7.94;63.45;98730.67;109188;1262;60638;-57
2023/11/24 10:36:30;;;;;;;8.00;1.80;;;;;;;7.24;65.07;98725.56;109172;1262;74156;-57
2023/11/24 10:39:20;;;;;;;6.10;1.70;;;;;;;8.01;67.75;98722.36;108998;1266;68489;-57
2023/11/24 10:42:08;;;;;;;4.90;1.90;;;;;;;8.20;64.59;98717.39;107673;1263;74399;-57
2023/11/24 10:44:55;;;;;;;7.40;1.80;;;;;;;8.11;64.21;98718.23;107689;1263;60388;-57
2023/11/24 10:47:52;;;;;;;4.20;1.40;;;;;;;7.82;65.44;98720.14;107678;1263;60625;-59
2023/11/24 10:50:41;;;;;;;4.40;1.40;;;;;;;7.16;65.09;98724.11;107746;1262;73489;-59
2023/11/24 10:53:49;;;;;;;4.20;1.40;;;;;;;6.67;64.69;98720.75;107714;1262;67817;-58
2023/11/24 10:56:36;;;;;;;6.60;1.80;;;;;;;6.76;64.52;98724.73;107723;1264;71139;-57
2023/11/24 10:59:23;;;;;;;4.70;1.20;;;;;;;7.32;64.91;98725.83;109171;1263;58375;-59
2023/11/24 11:02:10;;;;;;;;;;;;;;;8.28;67.13;98727.89;109172;1263;58884;-59
2023/11/24 11:05:05;;;;;;;5.90;1.80;;;;;;;8.68;63.68;98721.58;109197;1262;72914;-58
2023/11/24 11:08:18;;;;;;;4.50;1.70;;;;;;;8.62;63.92;98724.19;109187;1263;67206;-59
2023/11/24 11:11:25;;;;;;;3.30;1.90;;;;;;;9.81;65.38;98708.95;109179;1262;70380;-59
2023/11/24 11:14:13;;;;;;;29.70;5.20;;;;;;;11.18;64.11;98702.58;108270;1262;58008;-59
2023/11/24 11:17:00;;;;;;;10.70;3.70;;;;;;;12.04;66.00;98705.11;107734;1263;60448;-59
2023/11/24 11:20:02;;;;;;;6.80;2.90;;;;;;;12.15;62.27;98700.39;107445;1266;72934;-59
2023/11/24 11:22:58;;;;;;;95.00;11.30;;;;;;;12.28;59.58;98689.84;108685;1268;67243;-59
2023/11/24 11:25:52;;;;;;;240.40;15.60;;;;;;;12.48;63.11;98683.88;109184;1262;71235;-59
2023/11/24 11:28:46;;;;;;;31.90;5.90;;;;;;;11.89;53.82;98684.29;109149;1263;58235;-60
2023/11/24 11:31:37;;;;;;;68.90;9.00;;;;;;;10.84;56.26;98681.48;109175;1266;60807;-58
2023/11/24 11:34:31;;;;;;;121.10;10.70;;;;;;;10.93;56.70;98683.99;109094;1262;72468;-59
2023/11/24 11:37:19;;;;;;;29.30;6.70;;;;;;;11.45;57.89;98684.10;109157;1263;67215;-60
2023/11/24 11:40:14;;;;;;;195.90;29.80;;;;;;;10.38;59.64;98694.17;109142;1262;70017;-59
2023/11/24 11:43:08;;;;;;;5.60;1.80;;;;;;;9.05;57.25;98698.09;109174;1262;57701;-59
2023/11/24 11:45:59;;;;;;;3.90;1.40;;;;;;;8.15;59.86;98698.17;109158;1262;59989;-59
2023/11/24 11:48:46;;;;;;;5.50;1.50;;;;;;;7.80;61.87;98700.11;109185;1262;72498;-59
2023/11/24 11:51:33;;;;;;;6.10;1.70;;;;;;;7.25;61.98;98697.24;109035;1262;68343;-59
2023/11/24 11:54:19;;;;;;;10.00;1.50;;;;;;;6.95;61.45;98697.38;109011;1263;71647;-59
2023/11/24 11:57:07;;;;;;;3.80;1.60;;;;;;;6.69;61.42;98692.41;109178;1262;57530;-59
2023/11/24 11:59:53;;;;;;;3.70;1.00;;;;;;;6.29;62.10;98690.21;109144;1262;58608;-58
2023/11/24 12:02:39;;;;;;;;;;;;;;;5.94;62.75;98686.11;109217;1262;72181;-58
2023/11/24 12:05:28;;;;;;;;;;;;;;;5.68;63.21;98684.77;109194;1262;68132;-59
2023/11/24 12:08:29;;;;;;;4.30;1.70;;;;;;;5.71;63.44;98684.67;109086;1262;71066;-58
2023/11/24 12:11:15;;;;;;;6.20;1.40;;;;;;;5.86;63.93;98676.40;109144;1262;58553;-59
2023/11/24 12:14:01;;;;;;;7.00;1.30;;;;;;;5.97;63.18;98675.60;109182;1262;58849;-57
2023/11/24 12:16:47;;;;;;;4.80;1.20;;;;;;;6.46;63.81;98660.92;109186;1262;74277;-58
2023/11/24 12:19:33;;;;;;;4.40;1.40;;;;;;;7.53;59.69;98662.19;109179;1262;67217;-58
2023/11/24 12:22:20;;;;;;;2.40;1.10;;;;;;;7.73;59.73;98665.92;109159;1262;71357;-58
2023/11/24 12:25:10;;;;;;;4.10;1.40;;;;;;;7.77;59.70;98671.44;109167;1262;58475;-59
2023/11/24 12:27:58;;;;;;;4.90;2.50;;;;;;;7.79;60.93;98671.70;109181;1262;58923;-59
2023/11/24 12:30:45;;;;;;;7.10;1.40;;;;;;;7.04;59.74;98671.55;109148;1262;73625;-57
2023/11/24 12:33:33;;;;;;;2.60;1.20;;;;;;;6.38;60.14;98672.30;109105;1262;66990;-59
2023/11/24 12:36:19;;;;;;;5.90;1.30;;;;;;;5.90;60.23;98675.63;109099;1262;71154;-57
2023/11/24 12:39:05;;;;;;;3.50;1.70;;;;;;;5.66;61.02;98677.31;108876;1262;58025;-57
2023/11/24 12:41:54;;;;;;;10.30;1.40;;;;;;;5.42;61.10;98671.45;107710;1262;59670;-58
2023/11/24 12:44:41;;;;;;;5.20;1.60;;;;;;;5.21;61.99;98670.14;109172;1262;74105;-59
2023/11/24 12:47:27;;;;;;;5.60;1.70;;;;;;;5.04;62.01;98663.74;109170;1263;67257;-57
2023/11/24 12:50:14;;;;;;;4.60;1.40;;;;;;;5.15;62.00;98654.41;109105;1263;71523;-59
2023/11/24 12:53:00;;;;;;;29.40;6.50;;;;;;;5.11;62.41;98650.59;109181;1263;58130;-58
2023/11/24 12:55:47;;;;;;;4.00;1.20;;;;;;;5.22;62.70;98650.64;109209;1262;59993;-57
2023/11/24 12:58:33;;;;;;;6.10;1.60;;;;;;;5.14;62.44;98651.05;108130;1262;73483;-59
2023/11/24 13:01:19;;;;;;;5.00;1.10;;;;;;;5.41;62.10;98643.61;107735;1263;67876;-58
2023/11/24 13:04:08;;;;;;;4.20;1.40;;;;;;;5.75;61.69;98639.77;107595;1263;73961;-58
2023/11/24 13:06:55;;;;;;;5.50;1.50;;;;;;;5.81;61.64;98633.77;107677;1263;60362;-57